NWWW Airport Information

Runway Information
Runway 11 Length 10663 ft width 148 ft
Elevation 30 ft Threshold 0 ft Heading 121
Runway 29 Length 10663 ft Width 148 ft
Elevation 52 ft Threshold 0 ft Heading 301
Airport Frequencies
Type APP Name TONTOUTA A Frequency 119.7 MHZ
Type GND Name GND Frequency 121.7 MHZ
Type INFO Name TONTOUTA I Frequency 128.2 MHZ
Type MISC Name VDF Frequency 118.1 MHZ
Type TWR Name TONTOUTA T Frequency 118.1 MHZ
Airport Navaids
Type NDB Name La Tontouta Frequency 338 KHZ
Type NDB Name La Tontouta Frequency 354 KHZ
Type VOR-DME Name La Tontouta Frequency 112900 KHZ
Type NDB Name La Tontouta Frequency 326 KHZ
Airport Weather Information & NOTAM
ADDS - METARS form results

(2149 UTC 14 December 2019)
Data provider http://aviationweather.gov/metar/data/
 
METAR text: NWWW 142130Z AUTO 21004KT 160V280 CAVOK 28/18 Q1010 BECMG 14016KT
Conditions at: NWWW (LA TONTOUTA NLLE, WS) observed 2130 UTC 14 December 2019
Temperature: 28.0°C (82°F)
Dewpoint: 18.0°C (64°F) [RH = 55%]
Pressure (altimeter): 29.82 inches Hg (1010.0 mb)
Winds: from the SSW (210 degrees) at 5 MPH (4 knots; 2.1 m/s)
Visibility: 6 or more miles (10+ km)
Ceiling: ceiling and visibility are OK
Clouds: unknown
Weather: no significant weather observed at this time

METAR text: NWWW 142100Z AUTO VRB03KT CAVOK 27/17 Q1010 BECMG 14016KT
Conditions at: NWWW (LA TONTOUTA NLLE, WS) observed 2100 UTC 14 December 2019
Temperature: 27.0°C (81°F)
Dewpoint: 17.0°C (63°F) [RH = 54%]
Pressure (altimeter): 29.82 inches Hg (1010.0 mb)
Winds: variable direction winds at 3 MPH (3 knots; 1.5 m/s)
Visibility: 6 or more miles (10+ km)
Ceiling: ceiling and visibility are OK
Clouds: unknown
Weather: no significant weather observed at this time

Forecast for: NWWW (LA TONTOUTA NLLE, WS)
Text: TAF NWWW 141700Z 1418/1518 04006KT 9999 FEW065
Forecast period: 1800 to 2200 UTC 14 December 2019
Forecast type: FROM: standard forecast or significant change
Winds: from the NE (40 degrees) at 7 MPH (6 knots; 3.1 m/s)
Visibility: 6 or more miles 10+ km)
Ceiling: at least 12,000 feet AGL
Clouds: few clouds at 6500 feet AGL
Weather: no significant weather forecast for this period
Text: BECMG 1422/1424 14016KT
Forecast period: 2200 UTC 14 December 2019 to 1800 UTC 15 December 2019
Forecast type: BECOMING: Conditions expected to become as follows by 0000 UTC 15 December 2019
Winds: from the SE (140 degrees) at 18 MPH (16 knots; 8.2 m/s)
Visibility: 6 or more miles 10+ km)
Ceiling: at least 12,000 feet AGL
Clouds: few clouds at 6500 feet AGL
Weather: no significant weather forecast for this period